sensor_id;sensor_type;location;lat;lon;timestamp;P1;durP1;ratioP1;P2;durP2;ratioP2
22040;SDS011;11184;52.444;13.578;2023-05-02T00:01:05;15.07;;;13.52;;
22040;SDS011;11184;52.444;13.578;2023-05-02T00:03:50;14.02;;;12.60;;
22040;SDS011;11184;52.444;13.578;2023-05-02T00:06:35;15.02;;;13.45;;
22040;SDS011;11184;52.444;13.578;2023-05-02T00:09:20;15.57;;;14.00;;
22040;SDS011;11184;52.444;13.578;2023-05-02T00:12:04;15.02;;;12.68;;
22040;SDS011;11184;52.444;13.578;2023-05-02T00:14:49;15.00;;;12.98;;
22040;SDS011;11184;52.444;13.578;2023-05-02T00:17:33;13.05;;;11.73;;
22040;SDS011;11184;52.444;13.578;2023-05-02T00:20:18;18.08;;;12.15;;
22040;SDS011;11184;52.444;13.578;2023-05-02T00:23:03;15.10;;;13.18;;
22040;SDS011;11184;52.444;13.578;2023-05-02T00:25:47;16.17;;;12.27;;
22040;SDS011;11184;52.444;13.578;2023-05-02T00:28:32;18.15;;;12.75;;
22040;SDS011;11184;52.444;13.578;2023-05-02T00:31:17;14.38;;;13.00;;
22040;SDS011;11184;52.444;13.578;2023-05-02T00:34:01;15.90;;;14.27;;
22040;SDS011;11184;52.444;13.578;2023-05-02T00:36:47;17.50;;;12.52;;
22040;SDS011;11184;52.444;13.578;2023-05-02T00:39:35;13.63;;;11.60;;
22040;SDS011;11184;52.444;13.578;2023-05-02T00:42:20;12.82;;;11.02;;
22040;SDS011;11184;52.444;13.578;2023-05-02T00:45:04;16.30;;;11.50;;
22040;SDS011;11184;52.444;13.578;2023-05-02T00:47:49;13.30;;;12.02;;
22040;SDS011;11184;52.444;13.578;2023-05-02T00:50:37;17.08;;;11.40;;
22040;SDS011;11184;52.444;13.578;2023-05-02T00:53:25;12.05;;;10.50;;
22040;SDS011;11184;52.444;13.578;2023-05-02T00:56:10;14.13;;;10.43;;
22040;SDS011;11184;52.444;13.578;2023-05-02T00:58:54;15.13;;;9.45;;
22040;SDS011;11184;52.444;13.578;2023-05-02T01:04:30;11.13;;;7.75;;
22040;SDS011;11184;52.444;13.578;2023-05-02T01:10:20;9.90;;;8.10;;
22040;SDS011;11184;52.444;13.578;2023-05-02T01:13:20;9.18;;;8.40;;
22040;SDS011;11184;52.444;13.578;2023-05-02T01:16:05;9.30;;;8.40;;
22040;SDS011;11184;52.444;13.578;2023-05-02T01:18:51;7.13;;;6.47;;
22040;SDS011;11184;52.444;13.578;2023-05-02T01:21:36;6.93;;;5.75;;
22040;SDS011;11184;52.444;13.578;2023-05-02T01:24:23;7.10;;;5.90;;
22040;SDS011;11184;52.444;13.578;2023-05-02T01:27:14;7.80;;;5.68;;
22040;SDS011;11184;52.444;13.578;2023-05-02T01:30:02;10.15;;;5.35;;
22040;SDS011;11184;52.444;13.578;2023-05-02T01:32:47;8.25;;;5.75;;
22040;SDS011;11184;52.444;13.578;2023-05-02T01:35:33;6.53;;;5.40;;
22040;SDS011;11184;52.444;13.578;2023-05-02T01:38:18;7.72;;;6.15;;
22040;SDS011;11184;52.444;13.578;2023-05-02T01:41:04;5.82;;;5.05;;
22040;SDS011;11184;52.444;13.578;2023-05-02T01:43:50;5.90;;;5.40;;
22040;SDS011;11184;52.444;13.578;2023-05-02T01:46:35;6.22;;;4.97;;
22040;SDS011;11184;52.444;13.578;2023-05-02T01:49:22;6.15;;;4.85;;
22040;SDS011;11184;52.444;13.578;2023-05-02T01:52:08;5.70;;;5.07;;
22040;SDS011;11184;52.444;13.578;2023-05-02T01:54:54;7.72;;;4.75;;
22040;SDS011;11184;52.444;13.578;2023-05-02T01:57:41;6.28;;;5.78;;
22040;SDS011;11184;52.444;13.578;2023-05-02T02:00:27;7.57;;;4.72;;
22040;SDS011;11184;52.444;13.578;2023-05-02T02:03:13;10.70;;;5.88;;
22040;SDS011;11184;52.444;13.578;2023-05-02T02:05:59;6.45;;;4.57;;
22040;SDS011;11184;52.444;13.578;2023-05-02T02:08:44;7.45;;;4.97;;
22040;SDS011;11184;52.444;13.578;2023-05-02T02:11:33;6.72;;;4.60;;
22040;SDS011;11184;52.444;13.578;2023-05-02T02:14:24;5.18;;;4.68;;
22040;SDS011;11184;52.444;13.578;2023-05-02T02:17:13;7.18;;;4.50;;
22040;SDS011;11184;52.444;13.578;2023-05-02T02:20:02;5.00;;;4.05;;
22040;SDS011;11184;52.444;13.578;2023-05-02T02:22:49;8.95;;;5.32;;
22040;SDS011;11184;52.444;13.578;2023-05-02T02:25:36;4.90;;;4.10;;
22040;SDS011;11184;52.444;13.578;2023-05-02T02:28:21;10.73;;;5.07;;
22040;SDS011;11184;52.444;13.578;2023-05-02T02:31:06;6.75;;;4.85;;
22040;SDS011;11184;52.444;13.578;2023-05-02T02:33:50;6.38;;;5.05;;
22040;SDS011;11184;52.444;13.578;2023-05-02T02:36:38;5.78;;;4.18;;
22040;SDS011;11184;52.444;13.578;2023-05-02T02:53:46;5.70;;;4.45;;
22040;SDS011;11184;52.444;13.578;2023-05-02T02:56:40;4.75;;;4.20;;
22040;SDS011;11184;52.444;13.578;2023-05-02T02:59:33;5.53;;;4.35;;
22040;SDS011;11184;52.444;13.578;2023-05-02T03:02:18;5.65;;;4.18;;
22040;SDS011;11184;52.444;13.578;2023-05-02T03:05:06;8.90;;;4.53;;
22040;SDS011;11184;52.444;13.578;2023-05-02T03:07:52;5.22;;;4.50;;
22040;SDS011;11184;52.444;13.578;2023-05-02T03:10:37;4.88;;;4.20;;
22040;SDS011;11184;52.444;13.578;2023-05-02T03:13:22;5.45;;;4.03;;
22040;SDS011;11184;52.444;13.578;2023-05-02T03:16:22;4.90;;;4.15;;
22040;SDS011;11184;52.444;13.578;2023-05-02T03:19:10;3.90;;;3.55;;
22040;SDS011;11184;52.444;13.578;2023-05-02T03:21:55;7.90;;;3.85;;
22040;SDS011;11184;52.444;13.578;2023-05-02T03:24:40;7.53;;;4.13;;
22040;SDS011;11184;52.444;13.578;2023-05-02T03:27:24;6.53;;;5.18;;
22040;SDS011;11184;52.444;13.578;2023-05-02T03:30:09;4.57;;;3.75;;
22040;SDS011;11184;52.444;13.578;2023-05-02T03:32:54;3.75;;;3.35;;
22040;SDS011;11184;52.444;13.578;2023-05-02T03:35:39;7.57;;;4.43;;
22040;SDS011;11184;52.444;13.578;2023-05-02T03:38:25;10.05;;;3.83;;
22040;SDS011;11184;52.444;13.578;2023-05-02T03:41:12;4.60;;;3.63;;
22040;SDS011;11184;52.444;13.578;2023-05-02T03:43:57;5.05;;;3.08;;
22040;SDS011;11184;52.444;13.578;2023-05-02T03:46:42;7.60;;;3.65;;
22040;SDS011;11184;52.444;13.578;2023-05-02T03:49:27;3.92;;;3.40;;
22040;SDS011;11184;52.444;13.578;2023-05-02T03:52:12;5.05;;;3.40;;
22040;SDS011;11184;52.444;13.578;2023-05-02T03:54:56;9.50;;;4.70;;
22040;SDS011;11184;52.444;13.578;2023-05-02T03:57:41;7.65;;;4.60;;
22040;SDS011;11184;52.444;13.578;2023-05-02T04:00:25;3.45;;;3.08;;
22040;SDS011;11184;52.444;13.578;2023-05-02T04:03:10;5.50;;;5.00;;
22040;SDS011;11184;52.444;13.578;2023-05-02T04:05:55;7.47;;;4.65;;
22040;SDS011;11184;52.444;13.578;2023-05-02T04:08:39;4.68;;;3.22;;
22040;SDS011;11184;52.444;13.578;2023-05-02T04:11:25;11.95;;;4.13;;
22040;SDS011;11184;52.444;13.578;2023-05-02T04:14:10;5.05;;;4.03;;
22040;SDS011;11184;52.444;13.578;2023-05-02T04:16:55;4.90;;;3.70;;
22040;SDS011;11184;52.444;13.578;2023-05-02T04:19:39;7.35;;;4.45;;
22040;SDS011;11184;52.444;13.578;2023-05-02T04:22:24;5.20;;;3.88;;
22040;SDS011;11184;52.444;13.578;2023-05-02T04:25:08;4.32;;;3.38;;
22040;SDS011;11184;52.444;13.578;2023-05-02T04:27:53;4.78;;;3.80;;
22040;SDS011;11184;52.444;13.578;2023-05-02T04:30:37;6.68;;;3.72;;
22040;SDS011;11184;52.444;13.578;2023-05-02T04:33:22;5.50;;;3.67;;
22040;SDS011;11184;52.444;13.578;2023-05-02T04:36:08;4.53;;;3.38;;
22040;SDS011;11184;52.444;13.578;2023-05-02T04:38:53;9.18;;;4.65;;
22040;SDS011;11184;52.444;13.578;2023-05-02T04:41:38;10.20;;;4.30;;
22040;SDS011;11184;52.444;13.578;2023-05-02T04:44:22;5.55;;;4.43;;
22040;SDS011;11184;52.444;13.578;2023-05-02T04:47:07;6.78;;;5.18;;
22040;SDS011;11184;52.444;13.578;2023-05-02T04:49:52;6.68;;;4.25;;
22040;SDS011;11184;52.444;13.578;2023-05-02T04:52:36;9.75;;;4.80;;
22040;SDS011;11184;52.444;13.578;2023-05-02T04:55:21;5.32;;;4.28;;
22040;SDS011;11184;52.444;13.578;2023-05-02T04:58:05;8.93;;;4.07;;
22040;SDS011;11184;52.444;13.578;2023-05-02T05:00:50;5.07;;;3.95;;
22040;SDS011;11184;52.444;13.578;2023-05-02T05:03:34;5.55;;;4.25;;
22040;SDS011;11184;52.444;13.578;2023-05-02T05:06:19;7.45;;;4.50;;
22040;SDS011;11184;52.444;13.578;2023-05-02T05:09:03;6.72;;;5.32;;
22040;SDS011;11184;52.444;13.578;2023-05-02T05:11:48;11.02;;;5.20;;
22040;SDS011;11184;52.444;13.578;2023-05-02T05:14:33;9.00;;;5.50;;
22040;SDS011;11184;52.444;13.578;2023-05-02T05:17:18;6.50;;;4.13;;
22040;SDS011;11184;52.444;13.578;2023-05-02T05:20:02;7.35;;;4.53;;
22040;SDS011;11184;52.444;13.578;2023-05-02T05:22:47;6.40;;;4.90;;
22040;SDS011;11184;52.444;13.578;2023-05-02T05:25:32;7.85;;;5.90;;
22040;SDS011;11184;52.444;13.578;2023-05-02T05:28:16;5.13;;;3.75;;
22040;SDS011;11184;52.444;13.578;2023-05-02T05:31:05;8.40;;;5.82;;
22040;SDS011;11184;52.444;13.578;2023-05-02T05:33:49;13.80;;;6.88;;
22040;SDS011;11184;52.444;13.578;2023-05-02T05:36:34;9.60;;;5.85;;
22040;SDS011;11184;52.444;13.578;2023-05-02T05:39:19;20.65;;;8.73;;
22040;SDS011;11184;52.444;13.578;2023-05-02T05:42:04;7.55;;;5.85;;
22040;SDS011;11184;52.444;13.578;2023-05-02T05:44:50;12.82;;;6.05;;
22040;SDS011;11184;52.444;13.578;2023-05-02T05:47:34;9.82;;;6.70;;
22040;SDS011;11184;52.444;13.578;2023-05-02T05:50:19;8.50;;;6.30;;
22040;SDS011;11184;52.444;13.578;2023-05-02T05:53:03;8.20;;;5.50;;
22040;SDS011;11184;52.444;13.578;2023-05-02T05:55:48;9.30;;;6.25;;
22040;SDS011;11184;52.444;13.578;2023-05-02T05:58:33;7.60;;;5.00;;
22040;SDS011;11184;52.444;13.578;2023-05-02T06:01:17;8.98;;;5.75;;
22040;SDS011;11184;52.444;13.578;2023-05-02T06:04:02;8.43;;;5.57;;
22040;SDS011;11184;52.444;13.578;2023-05-02T06:06:47;6.20;;;5.15;;
22040;SDS011;11184;52.444;13.578;2023-05-02T06:09:33;5.20;;;4.68;;
22040;SDS011;11184;52.444;13.578;2023-05-02T06:12:18;7.80;;;5.82;;
22040;SDS011;11184;52.444;13.578;2023-05-02T06:15:03;11.05;;;5.15;;
22040;SDS011;11184;52.444;13.578;2023-05-02T06:17:49;5.90;;;5.40;;
22040;SDS011;11184;52.444;13.578;2023-05-02T06:20:35;10.95;;;6.28;;
22040;SDS011;11184;52.444;13.578;2023-05-02T06:23:19;7.00;;;5.20;;
22040;SDS011;11184;52.444;13.578;2023-05-02T06:26:04;6.65;;;5.45;;
22040;SDS011;11184;52.444;13.578;2023-05-02T06:28:49;13.85;;;6.00;;
22040;SDS011;11184;52.444;13.578;2023-05-02T06:31:34;8.02;;;6.53;;
22040;SDS011;11184;52.444;13.578;2023-05-02T06:34:18;17.27;;;7.75;;
22040;SDS011;11184;52.444;13.578;2023-05-02T06:37:03;8.10;;;6.10;;
22040;SDS011;11184;52.444;13.578;2023-05-02T06:39:48;9.95;;;7.45;;
22040;SDS011;11184;52.444;13.578;2023-05-02T06:42:32;8.98;;;6.10;;
22040;SDS011;11184;52.444;13.578;2023-05-02T06:45:17;6.25;;;5.57;;
22040;SDS011;11184;52.444;13.578;2023-05-02T06:48:01;7.57;;;6.03;;
22040;SDS011;11184;52.444;13.578;2023-05-02T06:50:46;9.90;;;5.57;;
22040;SDS011;11184;52.444;13.578;2023-05-02T06:53:31;11.95;;;6.45;;
22040;SDS011;11184;52.444;13.578;2023-05-02T06:56:17;8.65;;;5.97;;
22040;SDS011;11184;52.444;13.578;2023-05-02T06:59:01;8.02;;;6.90;;
22040;SDS011;11184;52.444;13.578;2023-05-02T07:01:46;8.15;;;7.38;;
22040;SDS011;11184;52.444;13.578;2023-05-02T07:04:30;14.85;;;7.13;;
22040;SDS011;11184;52.444;13.578;2023-05-02T07:07:15;11.60;;;7.82;;
22040;SDS011;11184;52.444;13.578;2023-05-02T07:10:01;7.32;;;6.63;;
22040;SDS011;11184;52.444;13.578;2023-05-02T07:12:46;8.60;;;7.15;;
22040;SDS011;11184;52.444;13.578;2023-05-02T07:15:30;12.85;;;7.38;;
22040;SDS011;11184;52.444;13.578;2023-05-02T07:18:15;11.20;;;8.00;;
22040;SDS011;11184;52.444;13.578;2023-05-02T07:21:00;12.05;;;8.05;;
22040;SDS011;11184;52.444;13.578;2023-05-02T07:23:44;8.77;;;7.65;;
22040;SDS011;11184;52.444;13.578;2023-05-02T07:26:29;12.20;;;7.30;;
22040;SDS011;11184;52.444;13.578;2023-05-02T07:29:14;10.57;;;7.68;;
22040;SDS011;11184;52.444;13.578;2023-05-02T07:31:58;11.77;;;6.97;;
22040;SDS011;11184;52.444;13.578;2023-05-02T07:34:43;14.40;;;8.75;;
22040;SDS011;11184;52.444;13.578;2023-05-02T07:37:32;10.60;;;7.72;;
22040;SDS011;11184;52.444;13.578;2023-05-02T07:40:17;8.73;;;6.90;;
22040;SDS011;11184;52.444;13.578;2023-05-02T07:43:02;8.50;;;7.57;;
22040;SDS011;11184;52.444;13.578;2023-05-02T07:45:47;8.68;;;7.75;;
22040;SDS011;11184;52.444;13.578;2023-05-02T07:48:31;9.30;;;7.75;;
22040;SDS011;11184;52.444;13.578;2023-05-02T07:51:17;11.80;;;8.32;;
22040;SDS011;11184;52.444;13.578;2023-05-02T07:54:16;7.68;;;6.47;;
22040;SDS011;11184;52.444;13.578;2023-05-02T07:57:01;8.45;;;7.63;;
22040;SDS011;11184;52.444;13.578;2023-05-02T07:59:47;7.38;;;6.55;;
22040;SDS011;11184;52.444;13.578;2023-05-02T08:02:33;9.13;;;6.53;;
22040;SDS011;11184;52.444;13.578;2023-05-02T08:05:19;6.60;;;6.00;;
22040;SDS011;11184;52.444;13.578;2023-05-02T08:08:04;13.65;;;6.45;;
22040;SDS011;11184;52.444;13.578;2023-05-02T08:10:49;7.72;;;6.55;;
22040;SDS011;11184;52.444;13.578;2023-05-02T08:13:33;9.35;;;6.35;;
22040;SDS011;11184;52.444;13.578;2023-05-02T08:16:19;7.70;;;7.00;;
22040;SDS011;11184;52.444;13.578;2023-05-02T08:19:03;6.80;;;6.10;;
22040;SDS011;11184;52.444;13.578;2023-05-02T08:21:48;9.10;;;7.28;;
22040;SDS011;11184;52.444;13.578;2023-05-02T08:24:33;8.45;;;6.50;;
22040;SDS011;11184;52.444;13.578;2023-05-02T08:27:17;6.25;;;5.65;;
22040;SDS011;11184;52.444;13.578;2023-05-02T08:30:02;8.27;;;7.38;;
22040;SDS011;11184;52.444;13.578;2023-05-02T08:32:47;7.15;;;6.40;;
22040;SDS011;11184;52.444;13.578;2023-05-02T08:35:31;7.00;;;6.28;;
22040;SDS011;11184;52.444;13.578;2023-05-02T08:38:16;8.48;;;6.70;;
22040;SDS011;11184;52.444;13.578;2023-05-02T08:41:01;8.50;;;5.95;;
22040;SDS011;11184;52.444;13.578;2023-05-02T08:43:46;8.30;;;6.90;;
22040;SDS011;11184;52.444;13.578;2023-05-02T08:46:31;7.07;;;5.63;;
22040;SDS011;11184;52.444;13.578;2023-05-02T08:49:18;14.35;;;5.90;;
22040;SDS011;11184;52.444;13.578;2023-05-02T08:52:04;11.40;;;6.88;;
22040;SDS011;11184;52.444;13.578;2023-05-02T08:54:49;7.30;;;6.32;;
22040;SDS011;11184;52.444;13.578;2023-05-02T08:57:34;8.80;;;6.85;;
22040;SDS011;11184;52.444;13.578;2023-05-02T09:00:19;8.95;;;6.03;;
22040;SDS011;11184;52.444;13.578;2023-05-02T09:05:52;10.13;;;5.90;;
22040;SDS011;11184;52.444;13.578;2023-05-02T09:08:38;5.40;;;4.90;;
22040;SDS011;11184;52.444;13.578;2023-05-02T09:11:26;5.90;;;5.25;;
22040;SDS011;11184;52.444;13.578;2023-05-02T09:14:14;7.05;;;5.97;;
22040;SDS011;11184;52.444;13.578;2023-05-02T09:16:59;6.88;;;5.13;;
22040;SDS011;11184;52.444;13.578;2023-05-02T09:19:44;8.10;;;5.93;;
22040;SDS011;11184;52.444;13.578;2023-05-02T09:22:29;6.55;;;5.95;;
22040;SDS011;11184;52.444;13.578;2023-05-02T09:25:14;7.80;;;5.30;;
22040;SDS011;11184;52.444;13.578;2023-05-02T09:27:59;8.32;;;4.13;;
22040;SDS011;11184;52.444;13.578;2023-05-02T09:30:44;9.77;;;4.03;;
22040;SDS011;11184;52.444;13.578;2023-05-02T09:33:30;4.43;;;3.83;;
22040;SDS011;11184;52.444;13.578;2023-05-02T09:36:17;5.47;;;3.30;;
22040;SDS011;11184;52.444;13.578;2023-05-02T09:39:07;7.65;;;3.45;;
22040;SDS011;11184;52.444;13.578;2023-05-02T09:41:54;4.95;;;4.00;;
22040;SDS011;11184;52.444;13.578;2023-05-02T09:44:38;7.00;;;3.78;;
22040;SDS011;11184;52.444;13.578;2023-05-02T09:47:25;7.57;;;3.67;;
22040;SDS011;11184;52.444;13.578;2023-05-02T09:50:09;5.40;;;3.17;;
22040;SDS011;11184;52.444;13.578;2023-05-02T09:53:04;4.97;;;3.15;;
22040;SDS011;11184;52.444;13.578;2023-05-02T09:55:57;4.25;;;3.38;;
22040;SDS011;11184;52.444;13.578;2023-05-02T09:58:42;4.60;;;3.28;;
22040;SDS011;11184;52.444;13.578;2023-05-02T10:01:27;6.10;;;3.90;;
22040;SDS011;11184;52.444;13.578;2023-05-02T10:04:12;4.93;;;3.58;;
22040;SDS011;11184;52.444;13.578;2023-05-02T10:07:01;4.25;;;3.58;;
22040;SDS011;11184;52.444;13.578;2023-05-02T10:09:47;4.60;;;2.35;;
22040;SDS011;11184;52.444;13.578;2023-05-02T10:12:34;9.88;;;3.33;;
22040;SDS011;11184;52.444;13.578;2023-05-02T10:15:20;4.85;;;4.13;;
22040;SDS011;11184;52.444;13.578;2023-05-02T10:18:07;3.67;;;3.03;;
22040;SDS011;11184;52.444;13.578;2023-05-02T10:20:58;8.18;;;4.07;;
22040;SDS011;11184;52.444;13.578;2023-05-02T10:23:43;4.93;;;3.17;;
22040;SDS011;11184;52.444;13.578;2023-05-02T10:29:02;4.03;;;3.15;;
22040;SDS011;11184;52.444;13.578;2023-05-02T10:31:47;5.50;;;3.70;;
22040;SDS011;11184;52.444;13.578;2023-05-02T10:34:32;6.38;;;2.85;;
22040;SDS011;11184;52.444;13.578;2023-05-02T10:37:17;6.00;;;4.57;;
22040;SDS011;11184;52.444;13.578;2023-05-02T10:40:03;5.70;;;3.65;;
22040;SDS011;11184;52.444;13.578;2023-05-02T10:42:48;3.08;;;2.72;;
22040;SDS011;11184;52.444;13.578;2023-05-02T10:45:35;2.72;;;2.42;;
22040;SDS011;11184;52.444;13.578;2023-05-02T10:48:20;4.05;;;3.22;;
22040;SDS011;11184;52.444;13.578;2023-05-02T10:51:05;5.05;;;3.65;;
22040;SDS011;11184;52.444;13.578;2023-05-02T10:59:48;4.18;;;2.65;;
22040;SDS011;11184;52.444;13.578;2023-05-02T11:05:18;3.40;;;3.03;;
22040;SDS011;11184;52.444;13.578;2023-05-02T11:11:43;6.88;;;3.05;;
22040;SDS011;11184;52.444;13.578;2023-05-02T11:14:09;4.30;;;3.28;;
22040;SDS011;11184;52.444;13.578;2023-05-02T11:22:40;3.20;;;2.60;;
22040;SDS011;11184;52.444;13.578;2023-05-02T11:25:31;3.70;;;3.40;;
22040;SDS011;11184;52.444;13.578;2023-05-02T11:34:11;3.75;;;3.10;;
22040;SDS011;11184;52.444;13.578;2023-05-02T11:36:55;3.88;;;3.53;;
22040;SDS011;11184;52.444;13.578;2023-05-02T11:39:40;7.22;;;5.05;;
22040;SDS011;11184;52.444;13.578;2023-05-02T11:42:29;6.65;;;5.22;;
22040;SDS011;11184;52.444;13.578;2023-05-02T11:45:13;9.80;;;7.68;;
22040;SDS011;11184;52.444;13.578;2023-05-02T11:47:59;18.75;;;8.68;;
22040;SDS011;11184;52.444;13.578;2023-05-02T11:50:47;17.80;;;8.57;;
22040;SDS011;11184;52.444;13.578;2023-05-02T11:53:33;15.80;;;6.80;;
22040;SDS011;11184;52.444;13.578;2023-05-02T11:56:23;7.63;;;6.07;;
22040;SDS011;11184;52.444;13.578;2023-05-02T11:59:09;9.90;;;6.18;;
22040;SDS011;11184;52.444;13.578;2023-05-02T12:01:53;14.88;;;5.22;;
22040;SDS011;11184;52.444;13.578;2023-05-02T12:04:44;8.35;;;4.22;;
22040;SDS011;11184;52.444;13.578;2023-05-02T12:07:39;10.35;;;5.68;;
22040;SDS011;11184;52.444;13.578;2023-05-02T12:10:24;6.57;;;4.55;;
22040;SDS011;11184;52.444;13.578;2023-05-02T12:13:20;12.65;;;5.72;;
22040;SDS011;11184;52.444;13.578;2023-05-02T12:16:04;4.57;;;3.97;;
22040;SDS011;11184;52.444;13.578;2023-05-02T12:18:49;6.18;;;3.65;;
22040;SDS011;11184;52.444;13.578;2023-05-02T12:21:34;8.57;;;3.10;;
22040;SDS011;11184;52.444;13.578;2023-05-02T12:24:19;4.75;;;2.75;;
22040;SDS011;11184;52.444;13.578;2023-05-02T12:27:10;3.92;;;2.88;;
22040;SDS011;11184;52.444;13.578;2023-05-02T12:29:56;5.72;;;2.80;;
22040;SDS011;11184;52.444;13.578;2023-05-02T12:32:41;6.60;;;3.10;;
22040;SDS011;11184;52.444;13.578;2023-05-02T12:35:28;7.95;;;2.65;;
22040;SDS011;11184;52.444;13.578;2023-05-02T12:38:17;5.20;;;2.65;;
22040;SDS011;11184;52.444;13.578;2023-05-02T12:41:03;6.07;;;2.55;;
22040;SDS011;11184;52.444;13.578;2023-05-02T12:43:48;10.57;;;3.05;;
22040;SDS011;11184;52.444;13.578;2023-05-02T12:46:34;3.40;;;1.80;;
22040;SDS011;11184;52.444;13.578;2023-05-02T12:49:19;7.57;;;2.97;;
22040;SDS011;11184;52.444;13.578;2023-05-02T12:52:04;5.78;;;2.70;;
22040;SDS011;11184;52.444;13.578;2023-05-02T12:54:48;12.88;;;3.67;;
22040;SDS011;11184;52.444;13.578;2023-05-02T12:57:33;7.80;;;3.13;;
22040;SDS011;11184;52.444;13.578;2023-05-02T13:00:18;8.48;;;2.88;;
22040;SDS011;11184;52.444;13.578;2023-05-02T13:03:03;6.63;;;2.92;;
22040;SDS011;11184;52.444;13.578;2023-05-02T13:05:47;10.88;;;3.20;;
22040;SDS011;11184;52.444;13.578;2023-05-02T13:08:37;11.30;;;4.28;;
22040;SDS011;11184;52.444;13.578;2023-05-02T13:11:21;8.30;;;3.80;;
22040;SDS011;11184;52.444;13.578;2023-05-02T13:14:07;12.13;;;3.95;;
22040;SDS011;11184;52.444;13.578;2023-05-02T13:16:54;10.70;;;3.65;;
22040;SDS011;11184;52.444;13.578;2023-05-02T13:19:38;10.68;;;2.95;;
22040;SDS011;11184;52.444;13.578;2023-05-02T13:22:23;7.50;;;3.72;;
22040;SDS011;11184;52.444;13.578;2023-05-02T13:25:08;8.18;;;3.38;;
22040;SDS011;11184;52.444;13.578;2023-05-02T13:27:52;11.23;;;4.47;;
22040;SDS011;11184;52.444;13.578;2023-05-02T13:30:37;11.45;;;3.70;;
22040;SDS011;11184;52.444;13.578;2023-05-02T13:33:22;10.30;;;3.47;;
22040;SDS011;11184;52.444;13.578;2023-05-02T13:36:06;11.18;;;3.90;;
22040;SDS011;11184;52.444;13.578;2023-05-02T13:38:51;6.55;;;3.58;;
22040;SDS011;11184;52.444;13.578;2023-05-02T13:41:36;12.63;;;4.38;;
22040;SDS011;11184;52.444;13.578;2023-05-02T13:44:20;13.75;;;3.15;;
22040;SDS011;11184;52.444;13.578;2023-05-02T13:47:05;9.88;;;4.63;;
22040;SDS011;11184;52.444;13.578;2023-05-02T13:49:50;8.77;;;4.03;;
22040;SDS011;11184;52.444;13.578;2023-05-02T13:52:35;14.70;;;3.58;;
22040;SDS011;11184;52.444;13.578;2023-05-02T13:55:20;6.78;;;4.43;;
22040;SDS011;11184;52.444;13.578;2023-05-02T13:58:05;8.02;;;3.40;;
22040;SDS011;11184;52.444;13.578;2023-05-02T14:00:50;11.80;;;3.78;;
22040;SDS011;11184;52.444;13.578;2023-05-02T14:03:34;8.40;;;3.42;;
22040;SDS011;11184;52.444;13.578;2023-05-02T14:06:19;5.03;;;2.40;;
22040;SDS011;11184;52.444;13.578;2023-05-02T14:09:03;11.63;;;2.55;;
22040;SDS011;11184;52.444;13.578;2023-05-02T14:11:49;10.70;;;3.65;;
22040;SDS011;11184;52.444;13.578;2023-05-02T14:14:34;11.50;;;3.42;;
22040;SDS011;11184;52.444;13.578;2023-05-02T14:17:20;7.38;;;2.40;;
22040;SDS011;11184;52.444;13.578;2023-05-02T14:20:07;5.63;;;2.60;;
22040;SDS011;11184;52.444;13.578;2023-05-02T14:22:53;6.22;;;3.22;;
22040;SDS011;11184;52.444;13.578;2023-05-02T14:25:37;6.97;;;3.30;;
22040;SDS011;11184;52.444;13.578;2023-05-02T14:28:22;9.43;;;4.15;;
22040;SDS011;11184;52.444;13.578;2023-05-02T14:31:06;4.38;;;3.20;;
22040;SDS011;11184;52.444;13.578;2023-05-02T14:33:51;9.13;;;2.90;;
22040;SDS011;11184;52.444;13.578;2023-05-02T14:36:36;4.60;;;3.22;;
22040;SDS011;11184;52.444;13.578;2023-05-02T14:39:20;8.43;;;4.20;;
22040;SDS011;11184;52.444;13.578;2023-05-02T14:42:05;12.93;;;3.75;;
22040;SDS011;11184;52.444;13.578;2023-05-02T14:44:50;6.70;;;3.63;;
22040;SDS011;11184;52.444;13.578;2023-05-02T14:47:35;10.77;;;3.30;;
22040;SDS011;11184;52.444;13.578;2023-05-02T14:50:19;9.68;;;4.55;;
22040;SDS011;11184;52.444;13.578;2023-05-02T14:53:04;12.13;;;3.35;;
22040;SDS011;11184;52.444;13.578;2023-05-02T14:55:50;7.35;;;3.95;;
22040;SDS011;11184;52.444;13.578;2023-05-02T14:58:34;10.27;;;4.07;;
22040;SDS011;11184;52.444;13.578;2023-05-02T15:01:19;7.10;;;3.50;;
22040;SDS011;11184;52.444;13.578;2023-05-02T15:04:04;7.22;;;4.22;;
22040;SDS011;11184;52.444;13.578;2023-05-02T15:06:49;6.00;;;3.40;;
22040;SDS011;11184;52.444;13.578;2023-05-02T15:09:36;6.18;;;2.85;;
22040;SDS011;11184;52.444;13.578;2023-05-02T15:12:21;8.82;;;3.65;;
22040;SDS011;11184;52.444;13.578;2023-05-02T15:15:06;6.18;;;2.85;;
22040;SDS011;11184;52.444;13.578;2023-05-02T15:17:51;8.60;;;3.53;;
22040;SDS011;11184;52.444;13.578;2023-05-02T15:20:36;5.32;;;2.97;;
22040;SDS011;11184;52.444;13.578;2023-05-02T15:23:21;10.68;;;3.53;;
22040;SDS011;11184;52.444;13.578;2023-05-02T15:26:05;9.15;;;4.70;;
22040;SDS011;11184;52.444;13.578;2023-05-02T15:28:50;7.00;;;3.17;;
22040;SDS011;11184;52.444;13.578;2023-05-02T15:31:34;4.90;;;3.10;;
22040;SDS011;11184;52.444;13.578;2023-05-02T15:34:19;6.68;;;2.58;;
22040;SDS011;11184;52.444;13.578;2023-05-02T15:37:04;7.80;;;2.80;;
22040;SDS011;11184;52.444;13.578;2023-05-02T15:39:49;10.48;;;3.78;;
22040;SDS011;11184;52.444;13.578;2023-05-02T15:42:34;6.80;;;2.60;;
22040;SDS011;11184;52.444;13.578;2023-05-02T15:45:19;6.38;;;2.90;;
22040;SDS011;11184;52.444;13.578;2023-05-02T15:48:04;5.57;;;2.90;;
22040;SDS011;11184;52.444;13.578;2023-05-02T15:50:48;5.70;;;3.58;;
22040;SDS011;11184;52.444;13.578;2023-05-02T15:53:35;5.10;;;2.75;;
22040;SDS011;11184;52.444;13.578;2023-05-02T15:56:22;12.75;;;3.22;;
22040;SDS011;11184;52.444;13.578;2023-05-02T15:59:06;8.20;;;3.28;;
22040;SDS011;11184;52.444;13.578;2023-05-02T16:01:51;5.10;;;2.63;;
22040;SDS011;11184;52.444;13.578;2023-05-02T16:04:35;6.63;;;2.58;;
22040;SDS011;11184;52.444;13.578;2023-05-02T16:07:20;6.38;;;2.80;;
22040;SDS011;11184;52.444;13.578;2023-05-02T16:10:05;9.43;;;3.13;;
22040;SDS011;11184;52.444;13.578;2023-05-02T16:12:51;6.25;;;3.05;;
22040;SDS011;11184;52.444;13.578;2023-05-02T16:15:36;13.20;;;3.95;;
22040;SDS011;11184;52.444;13.578;2023-05-02T16:18:21;7.72;;;3.15;;
22040;SDS011;11184;52.444;13.578;2023-05-02T16:21:10;9.07;;;3.90;;
22040;SDS011;11184;52.444;13.578;2023-05-02T16:23:55;9.95;;;2.63;;
22040;SDS011;11184;52.444;13.578;2023-05-02T16:29:26;5.80;;;2.78;;
22040;SDS011;11184;52.444;13.578;2023-05-02T16:32:11;8.18;;;3.60;;
22040;SDS011;11184;52.444;13.578;2023-05-02T16:34:55;7.75;;;3.08;;
22040;SDS011;11184;52.444;13.578;2023-05-02T16:37:40;6.35;;;2.85;;
22040;SDS011;11184;52.444;13.578;2023-05-02T16:40:25;13.30;;;3.90;;
22040;SDS011;11184;52.444;13.578;2023-05-02T16:43:09;3.70;;;3.33;;
22040;SDS011;11184;52.444;13.578;2023-05-02T16:45:57;9.20;;;3.92;;
22040;SDS011;11184;52.444;13.578;2023-05-02T16:48:43;10.15;;;3.50;;
22040;SDS011;11184;52.444;13.578;2023-05-02T16:51:27;9.95;;;3.95;;
22040;SDS011;11184;52.444;13.578;2023-05-02T16:54:14;12.10;;;2.88;;
22040;SDS011;11184;52.444;13.578;2023-05-02T16:56:59;8.02;;;3.38;;
22040;SDS011;11184;52.444;13.578;2023-05-02T16:59:45;14.43;;;3.63;;
22040;SDS011;11184;52.444;13.578;2023-05-02T17:02:30;11.73;;;3.90;;
22040;SDS011;11184;52.444;13.578;2023-05-02T17:05:15;6.28;;;2.90;;
22040;SDS011;11184;52.444;13.578;2023-05-02T17:08:00;14.00;;;3.10;;
22040;SDS011;11184;52.444;13.578;2023-05-02T17:10:48;4.28;;;2.97;;